Time;durP1;ratioP1;P1;durP2;ratioP2;P2;SDS_P1;SDS_P2;PMS_P1;PMS_P2;Temp;Humidity;BMP_temperature;BMP_pressure;BME280_temperature;BME280_humidity;BME280_pressure;Samples;Min_cycle;Max_cycle;Signal;HPM_P1;HPM_P2
2023/08/05 00:00:53;;;;;;;9.02;2.95;;;;;;;;;;5013116;28;20029;-68
2023/08/05 00:03:23;;;;;;;7.93;3.10;;;;;;;;;;5011980;28;20037;-68
2023/08/05 00:05:49;;;;;;;9.77;3.03;;;;;;;;;;5012148;28;20871;-68
2023/08/05 00:08:14;;;;;;;7.07;2.90;;;;;;;;;;4994362;28;20063;-68
2023/08/05 00:10:43;;;;;;;6.68;3.08;;;;;;;;;;5000472;28;20035;-68
2023/08/05 00:13:08;;;;;;;7.13;3.03;;;;;;;;;;5016780;28;20257;-67
2023/08/05 00:15:33;;;;;;;9.38;3.28;;;;;;;;;;5015453;28;20110;-68
2023/08/05 00:18:01;;;;;;;7.60;3.00;;;;;;;;;;4997896;28;20045;-67
2023/08/05 00:20:27;;;;;;;8.73;3.03;;;;;;;;;;5016023;28;20115;-68
2023/08/05 00:22:52;;;;;;;9.52;3.30;;;;;;;;;;5016613;28;20060;-69
2023/08/05 00:25:18;;;;;;;8.48;3.17;;;;;;;;;;5016283;28;20041;-69
2023/08/05 00:27:43;;;;;;;8.52;3.17;;;;;;;;;;4998936;28;20041;-69
2023/08/05 00:30:08;;;;;;;7.63;3.15;;;;;;;;;;5014734;28;22186;-69
2023/08/05 00:32:36;;;;;;;9.05;2.90;;;;;;;;;;4998179;28;20033;-69
2023/08/05 00:35:02;;;;;;;6.88;3.10;;;;;;;;;;5017032;28;20540;-69
2023/08/05 00:37:27;;;;;;;12.30;3.47;;;;;;;;;;4995524;28;20040;-69
2023/08/05 00:39:52;;;;;;;7.72;3.10;;;;;;;;;;4994681;28;20045;-69
2023/08/05 00:42:19;;;;;;;5.65;2.55;;;;;;;;;;5016996;28;20044;-69
2023/08/05 00:44:47;;;;;;;6.72;2.83;;;;;;;;;;5014908;28;20049;-69
2023/08/05 00:47:14;;;;;;;7.60;2.90;;;;;;;;;;4996073;28;20525;-69
2023/08/05 00:49:40;;;;;;;8.75;3.20;;;;;;;;;;4994940;28;20033;-69
2023/08/05 00:52:09;;;;;;;10.68;3.53;;;;;;;;;;5017264;28;20114;-69
2023/08/05 00:54:34;;;;;;;7.72;3.55;;;;;;;;;;5014435;28;20498;-69
2023/08/05 00:57:02;;;;;;;14.48;4.65;;;;;;;;;;5015856;28;20037;-69
2023/08/05 00:59:28;;;;;;;9.73;5.15;;;;;;;;;;5014544;28;20048;-69
2023/08/05 01:01:53;;;;;;;14.13;6.10;;;;;;;;;;5015046;28;20060;-69
2023/08/05 01:04:18;;;;;;;16.90;6.47;;;;;;;;;;5014628;28;20047;-69
2023/08/05 01:06:46;;;;;;;14.98;6.82;;;;;;;;;;4996409;28;20087;-69
2023/08/05 01:09:11;;;;;;;14.23;5.95;;;;;;;;;;5014273;28;20218;-69
2023/08/05 01:11:39;;;;;;;13.90;6.20;;;;;;;;;;5015717;28;20155;-68
2023/08/05 01:14:04;;;;;;;15.45;5.88;;;;;;;;;;5016038;28;20132;-69
2023/08/05 01:16:30;;;;;;;12.35;5.57;;;;;;;;;;5000573;28;20173;-69
2023/08/05 01:18:55;;;;;;;10.48;4.85;;;;;;;;;;5013091;28;20502;-68
2023/08/05 01:21:28;;;;;;;10.68;5.55;;;;;;;;;;4998100;28;20029;-67
2023/08/05 01:24:02;;;;;;;14.48;6.45;;;;;;;;;;5016295;28;20102;-69
2023/08/05 01:26:28;;;;;;;13.90;5.85;;;;;;;;;;5014537;28;20039;-69
2023/08/05 01:28:53;;;;;;;12.82;4.57;;;;;;;;;;5015533;28;20041;-69
2023/08/05 01:31:19;;;;;;;11.00;4.85;;;;;;;;;;5014398;28;20096;-69
2023/08/05 01:33:45;;;;;;;13.02;5.55;;;;;;;;;;5015876;28;20144;-69
2023/08/05 01:36:29;;;;;;;9.13;4.72;;;;;;;;;;5000048;28;20128;-69
2023/08/05 01:38:57;;;;;;;9.00;4.63;;;;;;;;;;5015346;28;20091;-69
2023/08/05 01:41:23;;;;;;;9.13;4.05;;;;;;;;;;5014358;28;20486;-68
2023/08/05 01:43:48;;;;;;;10.52;4.85;;;;;;;;;;5015938;28;20049;-68
2023/08/05 01:46:13;;;;;;;9.32;4.60;;;;;;;;;;5016974;28;20037;-68
2023/08/05 01:48:41;;;;;;;8.40;4.40;;;;;;;;;;5015243;28;20036;-69
2023/08/05 01:51:06;;;;;;;14.90;5.10;;;;;;;;;;5013611;28;20229;-69
2023/08/05 01:53:33;;;;;;;11.82;4.47;;;;;;;;;;5014561;28;20032;-69
2023/08/05 01:55:59;;;;;;;9.48;4.05;;;;;;;;;;5002771;28;20246;-68
2023/08/05 01:58:24;;;;;;;10.27;3.83;;;;;;;;;;5014764;28;20041;-69
2023/08/05 02:00:50;;;;;;;10.98;4.38;;;;;;;;;;5013552;28;20065;-68
2023/08/05 02:03:15;;;;;;;9.27;4.75;;;;;;;;;;4981406;28;20048;-69
2023/08/05 02:05:40;;;;;;;14.18;6.95;;;;;;;;;;5014979;28;20045;-68
2023/08/05 02:08:06;;;;;;;12.20;5.75;;;;;;;;;;5015711;28;20037;-69
2023/08/05 02:10:31;;;;;;;18.33;7.28;;;;;;;;;;5014813;28;20805;-68
2023/08/05 02:12:58;;;;;;;18.20;6.93;;;;;;;;;;4995469;28;20036;-69
2023/08/05 02:15:25;;;;;;;17.77;7.70;;;;;;;;;;4996112;28;20037;-68
2023/08/05 02:17:51;;;;;;;23.88;9.98;;;;;;;;;;5014378;28;20042;-69
2023/08/05 02:20:16;;;;;;;16.40;6.85;;;;;;;;;;5016167;28;20045;-69
2023/08/05 02:22:41;;;;;;;13.93;6.13;;;;;;;;;;5014560;28;20937;-69
2023/08/05 02:25:07;;;;;;;13.27;6.07;;;;;;;;;;5014720;28;20047;-69
2023/08/05 02:27:32;;;;;;;18.30;7.22;;;;;;;;;;4996128;28;20040;-69
2023/08/05 02:29:58;;;;;;;12.95;6.32;;;;;;;;;;5017152;28;20410;-69
2023/08/05 02:32:23;;;;;;;13.40;6.75;;;;;;;;;;5012956;28;21302;-69
2023/08/05 02:34:48;;;;;;;18.80;9.38;;;;;;;;;;5014537;28;20033;-69
2023/08/05 02:37:13;;;;;;;19.98;9.65;;;;;;;;;;4998530;28;20120;-69
2023/08/05 02:39:40;;;;;;;27.73;11.23;;;;;;;;;;5015760;28;20557;-69
2023/08/05 02:42:05;;;;;;;22.95;10.63;;;;;;;;;;5016152;28;20032;-69
2023/08/05 02:44:31;;;;;;;25.88;10.85;;;;;;;;;;5012742;28;20045;-69
2023/08/05 02:46:56;;;;;;;22.08;9.13;;;;;;;;;;5014095;28;20165;-68
2023/08/05 02:49:21;;;;;;;23.77;9.23;;;;;;;;;;4980842;28;20090;-69
2023/08/05 02:51:47;;;;;;;24.38;9.13;;;;;;;;;;5014202;28;22457;-69
2023/08/05 02:54:13;;;;;;;19.95;8.60;;;;;;;;;;5011488;28;20584;-69
2023/08/05 02:56:39;;;;;;;27.17;9.93;;;;;;;;;;5000078;28;20963;-68
2023/08/05 02:59:05;;;;;;;25.27;11.23;;;;;;;;;;5004415;28;20038;-69
2023/08/05 03:01:30;;;;;;;26.02;10.80;;;;;;;;;;5003371;28;20034;-69
2023/08/05 03:03:56;;;;;;;14.55;7.13;;;;;;;;;;5012825;28;20045;-69
2023/08/05 03:06:23;;;;;;;19.48;8.57;;;;;;;;;;5014409;28;20040;-69
2023/08/05 03:08:49;;;;;;;17.67;7.88;;;;;;;;;;5015618;28;20037;-68
2023/08/05 03:11:16;;;;;;;19.35;7.80;;;;;;;;;;4998353;28;20120;-69
2023/08/05 03:13:41;;;;;;;17.10;7.47;;;;;;;;;;5015905;28;20540;-69
2023/08/05 03:16:08;;;;;;;29.23;10.15;;;;;;;;;;4996042;28;20087;-69
2023/08/05 03:18:33;;;;;;;29.02;12.02;;;;;;;;;;4994731;28;20029;-69
2023/08/05 03:20:59;;;;;;;16.27;6.63;;;;;;;;;;5015541;28;20045;-68
2023/08/05 03:23:24;;;;;;;16.20;6.70;;;;;;;;;;5011890;28;20675;-68
2023/08/05 03:25:49;;;;;;;15.90;6.30;;;;;;;;;;5013915;28;20758;-68
2023/08/05 03:28:15;;;;;;;13.55;6.03;;;;;;;;;;5013555;28;20037;-69
2023/08/05 03:30:40;;;;;;;13.20;6.47;;;;;;;;;;5013826;28;20041;-68
2023/08/05 03:33:05;;;;;;;12.05;5.38;;;;;;;;;;5014745;28;20043;-68
2023/08/05 03:35:33;;;;;;;16.48;6.80;;;;;;;;;;5013296;28;20039;-68
2023/08/05 03:37:59;;;;;;;16.27;7.05;;;;;;;;;;5014903;28;20048;-69
2023/08/05 03:40:24;;;;;;;13.50;5.85;;;;;;;;;;4998015;28;20044;-69
2023/08/05 03:42:50;;;;;;;13.82;6.65;;;;;;;;;;5014916;28;20123;-69
2023/08/05 03:45:15;;;;;;;18.23;7.95;;;;;;;;;;5014441;28;20045;-69
2023/08/05 03:47:40;;;;;;;22.63;7.85;;;;;;;;;;4996194;28;20940;-69
2023/08/05 03:50:08;;;;;;;20.48;8.57;;;;;;;;;;5014899;28;20100;-69
2023/08/05 03:52:33;;;;;;;26.05;9.93;;;;;;;;;;5014291;28;20033;-69
2023/08/05 03:54:58;;;;;;;26.90;10.60;;;;;;;;;;5011608;28;20048;-70
2023/08/05 03:57:24;;;;;;;30.02;10.80;;;;;;;;;;5013173;28;20041;-69
2023/08/05 03:59:49;;;;;;;28.20;11.07;;;;;;;;;;4994712;28;20041;-70
2023/08/05 04:02:15;;;;;;;32.80;11.90;;;;;;;;;;4996152;28;20052;-70
2023/08/05 04:04:42;;;;;;;22.60;9.70;;;;;;;;;;4992028;28;20060;-69
2023/08/05 04:07:08;;;;;;;24.33;9.98;;;;;;;;;;4993400;28;20037;-69
2023/08/05 04:09:35;;;;;;;31.60;12.35;;;;;;;;;;4986435;28;20044;-69
2023/08/05 04:12:04;;;;;;;32.65;12.45;;;;;;;;;;5011653;28;20029;-69
2023/08/05 04:14:29;;;;;;;32.25;10.98;;;;;;;;;;5013867;28;20040;-69
2023/08/05 04:16:55;;;;;;;21.33;9.45;;;;;;;;;;4994429;28;20148;-69
2023/08/05 04:19:22;;;;;;;24.30;8.50;;;;;;;;;;5003568;28;20044;-69
2023/08/05 04:21:47;;;;;;;17.30;6.57;;;;;;;;;;4994679;28;20357;-69
2023/08/05 04:24:13;;;;;;;12.93;6.97;;;;;;;;;;4995647;28;20191;-69
2023/08/05 04:26:40;;;;;;;10.48;5.32;;;;;;;;;;4998034;28;20733;-69
2023/08/05 04:29:05;;;;;;;10.13;5.60;;;;;;;;;;4990869;28;20061;-69
2023/08/05 04:31:31;;;;;;;11.65;5.80;;;;;;;;;;5013864;28;21127;-69
2023/08/05 04:33:56;;;;;;;13.32;5.50;;;;;;;;;;5011927;28;20044;-69
2023/08/05 04:36:22;;;;;;;10.85;4.88;;;;;;;;;;5012775;28;20643;-69
2023/08/05 04:38:47;;;;;;;9.82;4.10;;;;;;;;;;5010723;28;20485;-69
2023/08/05 04:41:12;;;;;;;10.18;3.70;;;;;;;;;;5010476;28;20044;-69
2023/08/05 04:43:38;;;;;;;12.18;5.97;;;;;;;;;;5013504;28;20061;-68
2023/08/05 04:46:03;;;;;;;10.80;4.95;;;;;;;;;;5011414;28;20061;-68
2023/08/05 04:48:28;;;;;;;12.32;6.10;;;;;;;;;;5008772;28;20045;-70
2023/08/05 04:50:56;;;;;;;14.00;6.30;;;;;;;;;;5010218;28;20029;-69
2023/08/05 04:53:22;;;;;;;12.23;5.97;;;;;;;;;;5007439;28;20490;-69
2023/08/05 04:55:47;;;;;;;13.63;5.90;;;;;;;;;;5013605;28;20072;-69
2023/08/05 04:58:15;;;;;;;14.90;5.80;;;;;;;;;;5014706;28;20038;-70
2023/08/05 05:00:40;;;;;;;12.38;6.03;;;;;;;;;;4999144;28;20940;-70
2023/08/05 05:03:08;;;;;;;16.85;6.03;;;;;;;;;;5014606;28;20040;-68
2023/08/05 05:05:35;;;;;;;15.40;6.93;;;;;;;;;;5013043;28;20060;-70
2023/08/05 05:08:00;;;;;;;15.88;7.35;;;;;;;;;;4997291;28;20037;-70
2023/08/05 05:10:26;;;;;;;10.20;5.72;;;;;;;;;;5012182;28;20048;-69
2023/08/05 05:12:51;;;;;;;15.63;5.35;;;;;;;;;;5013982;28;20091;-70
2023/08/05 05:15:17;;;;;;;12.05;6.05;;;;;;;;;;4996462;28;20140;-70
2023/08/05 05:17:43;;;;;;;11.15;5.05;;;;;;;;;;5014592;28;20554;-75
2023/08/05 05:20:09;;;;;;;11.73;5.85;;;;;;;;;;5013405;28;20033;-74
2023/08/05 05:22:34;;;;;;;10.30;5.45;;;;;;;;;;5010671;28;20160;-74
2023/08/05 05:24:59;;;;;;;8.77;5.13;;;;;;;;;;5011109;28;20494;-74
2023/08/05 05:27:25;;;;;;;11.70;5.68;;;;;;;;;;5013073;28;20033;-75
2023/08/05 05:29:50;;;;;;;13.77;5.82;;;;;;;;;;5010451;28;20037;-75
2023/08/05 05:32:15;;;;;;;12.38;5.55;;;;;;;;;;5013688;28;20037;-73
2023/08/05 05:34:41;;;;;;;12.25;5.63;;;;;;;;;;5013427;28;20037;-75
2023/08/05 05:37:06;;;;;;;9.70;5.35;;;;;;;;;;5012715;28;20056;-74
2023/08/05 05:39:32;;;;;;;12.98;6.38;;;;;;;;;;4981929;28;20553;-74
2023/08/05 05:41:58;;;;;;;14.20;6.88;;;;;;;;;;5016253;28;20037;-74
2023/08/05 05:44:23;;;;;;;12.90;6.25;;;;;;;;;;5014062;28;20041;-74
2023/08/05 05:46:48;;;;;;;11.57;6.25;;;;;;;;;;5013863;28;20033;-76
2023/08/05 05:49:18;;;;;;;15.25;7.15;;;;;;;;;;5014391;28;20045;-76
2023/08/05 05:51:45;;;;;;;15.07;7.38;;;;;;;;;;5013370;28;20045;-74
2023/08/05 05:54:10;;;;;;;9.65;6.38;;;;;;;;;;5011819;28;21730;-76
2023/08/05 05:56:36;;;;;;;12.75;7.07;;;;;;;;;;5010728;28;20055;-75
2023/08/05 05:59:01;;;;;;;15.32;7.53;;;;;;;;;;5014482;28;20138;-75
2023/08/05 06:01:26;;;;;;;15.85;7.22;;;;;;;;;;5013344;28;20119;-75
2023/08/05 06:03:52;;;;;;;15.00;8.85;;;;;;;;;;5010672;28;22293;-75
2023/08/05 06:06:17;;;;;;;12.68;8.50;;;;;;;;;;5013347;28;20524;-75
2023/08/05 06:08:42;;;;;;;14.20;7.85;;;;;;;;;;5009671;28;20118;-74
2023/08/05 06:11:08;;;;;;;16.58;8.75;;;;;;;;;;5013472;28;22568;-74
2023/08/05 06:13:34;;;;;;;18.50;10.63;;;;;;;;;;5010787;28;20036;-74
2023/08/05 06:15:59;;;;;;;15.05;7.82;;;;;;;;;;4995016;28;20116;-74
2023/08/05 06:18:25;;;;;;;11.18;7.20;;;;;;;;;;5014565;28;20037;-74
2023/08/05 06:20:52;;;;;;;11.63;7.85;;;;;;;;;;5012039;28;20036;-75
2023/08/05 06:23:17;;;;;;;12.52;7.47;;;;;;;;;;5010991;28;20033;-74
2023/08/05 06:25:44;;;;;;;15.40;7.70;;;;;;;;;;5007092;28;20041;-74
2023/08/05 06:28:11;;;;;;;10.43;7.55;;;;;;;;;;5014260;28;20041;-73
2023/08/05 06:30:46;;;;;;;11.98;7.00;;;;;;;;;;5011664;28;20033;-72
2023/08/05 06:33:11;;;;;;;10.38;5.97;;;;;;;;;;5010907;28;20041;-72
2023/08/05 06:35:37;;;;;;;10.85;6.65;;;;;;;;;;5011114;28;20088;-75
2023/08/05 06:38:02;;;;;;;10.48;6.78;;;;;;;;;;4992106;28;20056;-73
2023/08/05 06:40:27;;;;;;;16.17;8.00;;;;;;;;;;5013247;28;20037;-73
2023/08/05 06:42:53;;;;;;;12.80;7.47;;;;;;;;;;5012480;28;20675;-74
2023/08/05 06:45:18;;;;;;;11.85;7.97;;;;;;;;;;5011864;28;20189;-71
2023/08/05 06:47:43;;;;;;;9.75;7.07;;;;;;;;;;5011407;28;20166;-72
2023/08/05 06:50:09;;;;;;;12.32;6.78;;;;;;;;;;5012674;28;20514;-74
2023/08/05 06:52:35;;;;;;;11.95;7.50;;;;;;;;;;5013794;28;20037;-73
2023/08/05 06:55:02;;;;;;;11.50;8.15;;;;;;;;;;5013165;28;20116;-72
2023/08/05 06:57:27;;;;;;;11.60;7.07;;;;;;;;;;5012644;28;20608;-73
2023/08/05 06:59:52;;;;;;;10.07;5.95;;;;;;;;;;4996152;28;20033;-74
2023/08/05 07:02:18;;;;;;;12.93;6.32;;;;;;;;;;5012348;28;20095;-72
2023/08/05 07:04:43;;;;;;;11.23;6.03;;;;;;;;;;5012761;28;20045;-74
2023/08/05 07:07:09;;;;;;;8.27;6.20;;;;;;;;;;5011538;28;20072;-73
2023/08/05 07:09:34;;;;;;;12.55;6.32;;;;;;;;;;5010858;28;20513;-74
2023/08/05 07:12:02;;;;;;;11.15;6.00;;;;;;;;;;4992639;28;20052;-75
2023/08/05 07:14:27;;;;;;;10.85;6.45;;;;;;;;;;5015283;28;20036;-73
2023/08/05 07:16:53;;;;;;;12.82;7.82;;;;;;;;;;4993546;28;20029;-73
2023/08/05 07:19:20;;;;;;;10.90;7.50;;;;;;;;;;5009752;28;20049;-73
2023/08/05 07:21:45;;;;;;;12.15;7.25;;;;;;;;;;4993840;28;20120;-71
2023/08/05 07:24:11;;;;;;;15.20;7.18;;;;;;;;;;5015040;28;20436;-73
2023/08/05 07:26:36;;;;;;;12.88;6.40;;;;;;;;;;5012597;28;20037;-73
2023/08/05 07:29:01;;;;;;;10.10;5.88;;;;;;;;;;5013429;28;20565;-75
2023/08/05 07:31:27;;;;;;;11.25;6.50;;;;;;;;;;4991234;28;20036;-74
2023/08/05 07:33:52;;;;;;;10.85;6.93;;;;;;;;;;4991681;28;20040;-74
2023/08/05 07:36:17;;;;;;;7.85;5.90;;;;;;;;;;5010644;28;20041;-74
2023/08/05 07:38:45;;;;;;;10.43;6.75;;;;;;;;;;5010827;28;20041;-74
2023/08/05 07:41:14;;;;;;;8.23;5.70;;;;;;;;;;5011694;28;20072;-76
2023/08/05 07:43:41;;;;;;;6.93;5.40;;;;;;;;;;4995745;28;20131;-73
2023/08/05 07:46:08;;;;;;;13.48;7.00;;;;;;;;;;5010026;28;20044;-75
2023/08/05 07:48:37;;;;;;;10.55;6.30;;;;;;;;;;4993673;28;20700;-74
2023/08/05 07:51:03;;;;;;;11.82;6.78;;;;;;;;;;5008831;28;20033;-74
2023/08/05 07:53:30;;;;;;;13.80;6.93;;;;;;;;;;4994951;28;20410;-75
2023/08/05 07:55:56;;;;;;;9.60;6.72;;;;;;;;;;4996126;28;20033;-75
2023/08/05 07:58:21;;;;;;;8.18;6.22;;;;;;;;;;4991680;28;20852;-75
2023/08/05 08:00:47;;;;;;;11.50;6.15;;;;;;;;;;5003155;28;20195;-75
2023/08/05 08:03:12;;;;;;;8.50;5.43;;;;;;;;;;5004653;28;20044;-76
2023/08/05 08:05:40;;;;;;;10.90;6.20;;;;;;;;;;5009597;28;20051;-76
2023/08/05 08:08:05;;;;;;;10.25;6.00;;;;;;;;;;5007139;28;20047;-75
2023/08/05 08:10:31;;;;;;;9.02;4.60;;;;;;;;;;5005954;28;20037;-73
2023/08/05 08:12:56;;;;;;;7.43;4.55;;;;;;;;;;4987812;28;20591;-75
2023/08/05 08:15:24;;;;;;;10.18;5.30;;;;;;;;;;5008335;28;20044;-72
2023/08/05 08:17:52;;;;;;;7.80;5.10;;;;;;;;;;5010162;28;20147;-74
2023/08/05 08:20:17;;;;;;;12.27;6.10;;;;;;;;;;5007121;28;20038;-76
2023/08/05 08:22:42;;;;;;;13.02;6.72;;;;;;;;;;5004746;28;20120;-75
2023/08/05 08:25:08;;;;;;;9.98;5.18;;;;;;;;;;5006779;28;20387;-75
2023/08/05 08:27:33;;;;;;;8.82;4.53;;;;;;;;;;5007111;28;20041;-74
2023/08/05 08:29:58;;;;;;;7.20;4.53;;;;;;;;;;5007602;28;20695;-75
2023/08/05 08:32:24;;;;;;;5.97;4.15;;;;;;;;;;5011790;28;20958;-75
2023/08/05 08:34:49;;;;;;;6.75;4.07;;;;;;;;;;4995772;28;20754;-73
2023/08/05 08:37:14;;;;;;;7.55;3.78;;;;;;;;;;4993977;28;20040;-74
2023/08/05 08:39:42;;;;;;;23.27;9.98;;;;;;;;;;5011457;28;20034;-76
2023/08/05 08:42:07;;;;;;;15.75;7.68;;;;;;;;;;5011415;28;20037;-75
2023/08/05 08:44:33;;;;;;;13.68;6.85;;;;;;;;;;5013665;28;20584;-75
2023/08/05 08:46:58;;;;;;;13.85;5.80;;;;;;;;;;5010991;28;20094;-75
2023/08/05 08:49:24;;;;;;;17.20;7.95;;;;;;;;;;5012544;28;20041;-74
2023/08/05 08:51:49;;;;;;;21.63;10.20;;;;;;;;;;5012053;28;20087;-72
2023/08/05 08:54:16;;;;;;;10.07;5.88;;;;;;;;;;5012417;28;20043;-74
2023/08/05 08:56:41;;;;;;;16.83;9.32;;;;;;;;;;4992983;28;20254;-74
2023/08/05 08:59:09;;;;;;;23.52;10.80;;;;;;;;;;5008746;28;20042;-73
2023/08/05 09:01:37;;;;;;;21.80;10.82;;;;;;;;;;5012731;28;20083;-72
2023/08/05 09:04:05;;;;;;;22.73;11.05;;;;;;;;;;5009204;28;20037;-72
2023/08/05 09:06:30;;;;;;;24.00;11.65;;;;;;;;;;5012327;28;20033;-72
2023/08/05 09:08:56;;;;;;;13.90;7.63;;;;;;;;;;4990599;28;20044;-73
2023/08/05 09:11:21;;;;;;;21.00;9.80;;;;;;;;;;5008927;28;20025;-75
2023/08/05 09:13:46;;;;;;;18.30;8.13;;;;;;;;;;5009648;28;20037;-74
2023/08/05 09:16:15;;;;;;;15.82;7.53;;;;;;;;;;4992500;28;20029;-74
2023/08/05 09:18:44;;;;;;;19.42;9.75;;;;;;;;;;4994308;28;22085;-74
2023/08/05 09:21:10;;;;;;;13.70;6.95;;;;;;;;;;5009358;28;20452;-73
2023/08/05 09:23:46;;;;;;;7.97;5.90;;;;;;;;;;4992040;28;20087;-73
2023/08/05 09:26:14;;;;;;;10.75;5.75;;;;;;;;;;5011015;28;20041;-72
2023/08/05 09:28:39;;;;;;;8.82;6.07;;;;;;;;;;5009231;28;20566;-71
2023/08/05 09:31:19;;;;;;;9.63;5.20;;;;;;;;;;5007401;28;20045;-75
2023/08/05 09:33:44;;;;;;;18.58;9.43;;;;;;;;;;5009644;28;20045;-74
2023/08/05 09:36:12;;;;;;;19.42;9.80;;;;;;;;;;5004301;28;20052;-73
2023/08/05 09:38:39;;;;;;;16.90;9.63;;;;;;;;;;5006531;28;20132;-72
2023/08/05 09:41:06;;;;;;;11.80;6.93;;;;;;;;;;5007141;28;20107;-72
2023/08/05 09:43:34;;;;;;;17.60;8.93;;;;;;;;;;5007169;28;20601;-72
2023/08/05 09:46:02;;;;;;;10.05;6.30;;;;;;;;;;5009384;28;20283;-74
2023/08/05 09:48:30;;;;;;;8.50;5.47;;;;;;;;;;4989761;28;20043;-73
2023/08/05 09:50:58;;;;;;;14.68;8.02;;;;;;;;;;5010200;28;20584;-72
2023/08/05 09:53:28;;;;;;;18.50;9.15;;;;;;;;;;5008383;28;20477;-72
2023/08/05 09:55:54;;;;;;;19.58;10.18;;;;;;;;;;5007956;28;20047;-73
2023/08/05 09:58:20;;;;;;;17.98;9.40;;;;;;;;;;5008730;28;20666;-68
2023/08/05 10:00:51;;;;;;;14.27;8.50;;;;;;;;;;5008780;28;20795;-68
2023/08/05 10:03:21;;;;;;;11.45;7.80;;;;;;;;;;4994515;28;20052;-69
2023/08/05 10:05:50;;;;;;;11.07;7.53;;;;;;;;;;4990410;28;20501;-68
2023/08/05 10:08:19;;;;;;;16.92;8.43;;;;;;;;;;4973401;28;20032;-70
2023/08/05 10:10:46;;;;;;;12.85;8.60;;;;;;;;;;5007093;28;20036;-69
2023/08/05 10:13:14;;;;;;;18.55;9.00;;;;;;;;;;5010116;28;21589;-67
2023/08/05 10:15:41;;;;;;;22.67;11.48;;;;;;;;;;5011397;28;20045;-68
2023/08/05 10:18:12;;;;;;;20.52;9.55;;;;;;;;;;5006977;28;20091;-68
2023/08/05 10:20:38;;;;;;;11.10;7.03;;;;;;;;;;5008342;28;20037;-69
2023/08/05 10:23:13;;;;;;;8.02;5.15;;;;;;;;;;5010250;28;20034;-68
2023/08/05 10:25:44;;;;;;;8.95;5.63;;;;;;;;;;4976419;28;20111;-68
2023/08/05 10:28:10;;;;;;;9.63;5.80;;;;;;;;;;5007847;28;20565;-70
2023/08/05 10:30:42;;;;;;;11.95;5.13;;;;;;;;;;4991587;28;20068;-68
2023/08/05 10:33:07;;;;;;;11.05;5.32;;;;;;;;;;5000105;28;20045;-68
2023/08/05 10:35:40;;;;;;;14.70;6.15;;;;;;;;;;5008678;28;20438;-67
2023/08/05 10:38:09;;;;;;;10.38;5.15;;;;;;;;;;4994258;28;20155;-67
2023/08/05 10:40:40;;;;;;;11.63;5.22;;;;;;;;;;5008831;28;20061;-68
2023/08/05 10:43:06;;;;;;;12.20;5.72;;;;;;;;;;4990066;28;20508;-68
2023/08/05 10:45:33;;;;;;;20.92;9.25;;;;;;;;;;5008095;28;20260;-68
2023/08/05 10:47:58;;;;;;;12.02;5.65;;;;;;;;;;5008610;28;20067;-68
2023/08/05 10:50:23;;;;;;;8.95;4.80;;;;;;;;;;4975678;28;20573;-67
2023/08/05 10:52:49;;;;;;;8.48;4.30;;;;;;;;;;5008960;28;20033;-70
2023/08/05 10:55:15;;;;;;;12.20;3.95;;;;;;;;;;5009406;28;20062;-68
2023/08/05 10:57:40;;;;;;;8.15;4.15;;;;;;;;;;5011954;28;20051;-71
2023/08/05 11:00:08;;;;;;;9.07;4.28;;;;;;;;;;5010284;28;20047;-67
2023/08/05 11:02:34;;;;;;;8.35;4.72;;;;;;;;;;4995426;28;20498;-67
2023/08/05 11:05:08;;;;;;;10.55;5.03;;;;;;;;;;5013363;28;20076;-68
2023/08/05 11:07:37;;;;;;;8.27;4.45;;;;;;;;;;4993899;28;20221;-69
2023/08/05 11:10:08;;;;;;;9.38;4.88;;;;;;;;;;5012947;28;20033;-65
2023/08/05 11:12:34;;;;;;;7.93;4.60;;;;;;;;;;4979968;28;20208;-67
2023/08/05 11:14:59;;;;;;;6.50;4.18;;;;;;;;;;5011496;28;20077;-67
2023/08/05 11:17:27;;;;;;;7.43;3.95;;;;;;;;;;5009657;28;20049;-68
2023/08/05 11:19:53;;;;;;;6.85;3.70;;;;;;;;;;4990840;28;20063;-66
2023/08/05 11:22:25;;;;;;;7.40;3.70;;;;;;;;;;5012208;28;20128;-69
2023/08/05 11:24:59;;;;;;;8.95;5.07;;;;;;;;;;4996871;28;20051;-67
2023/08/05 11:27:39;;;;;;;8.93;5.20;;;;;;;;;;4980023;28;20033;-69
2023/08/05 11:30:13;;;;;;;10.10;4.10;;;;;;;;;;5010916;28;20057;-68
2023/08/05 11:33:08;;;;;;;18.85;7.35;;;;;;;;;;5015700;28;20485;-68
2023/08/05 11:35:41;;;;;;;11.90;6.10;;;;;;;;;;4996062;28;20037;-70
2023/08/05 11:38:08;;;;;;;11.40;4.88;;;;;;;;;;4992138;28;20110;-70
2023/08/05 11:40:39;;;;;;;8.93;5.00;;;;;;;;;;5006427;28;20037;-69
2023/08/05 11:43:07;;;;;;;12.83;6.00;;;;;;;;;;5013070;28;20032;-70
2023/08/05 11:45:36;;;;;;;20.13;7.45;;;;;;;;;;4992496;28;20382;-70
2023/08/05 11:48:02;;;;;;;21.13;8.45;;;;;;;;;;5013144;28;20048;-67
2023/08/05 11:50:34;;;;;;;27.98;11.35;;;;;;;;;;5012399;28;20064;-68
2023/08/05 11:53:03;;;;;;;24.17;9.43;;;;;;;;;;5012250;28;20551;-68
2023/08/05 11:55:32;;;;;;;20.77;10.73;;;;;;;;;;4994736;28;20517;-68
2023/08/05 11:58:02;;;;;;;19.45;10.90;;;;;;;;;;5015008;28;20036;-65
2023/08/05 12:00:31;;;;;;;15.23;8.35;;;;;;;;;;4993348;28;20843;-68
2023/08/05 12:02:56;;;;;;;16.33;9.77;;;;;;;;;;5010112;28;20498;-69
2023/08/05 12:05:22;;;;;;;17.00;11.05;;;;;;;;;;5013538;28;20056;-69
2023/08/05 12:07:48;;;;;;;15.95;11.75;;;;;;;;;;5017117;28;20048;-69
2023/08/05 12:10:16;;;;;;;20.52;12.38;;;;;;;;;;5016320;28;20068;-70
2023/08/05 12:12:46;;;;;;;17.70;13.10;;;;;;;;;;5013394;28;20052;-71
2023/08/05 12:15:14;;;;;;;25.15;16.08;;;;;;;;;;4999958;28;20037;-70
2023/08/05 12:17:47;;;;;;;24.88;15.48;;;;;;;;;;5016137;28;20041;-69
2023/08/05 12:20:14;;;;;;;21.70;15.70;;;;;;;;;;5017518;28;20068;-69
2023/08/05 12:22:39;;;;;;;20.05;15.15;;;;;;;;;;5013994;28;20041;-71
2023/08/05 12:25:05;;;;;;;30.00;18.80;;;;;;;;;;5019611;28;20056;-70
2023/08/05 12:27:30;;;;;;;42.17;22.35;;;;;;;;;;5019139;28;20091;-70
2023/08/05 12:29:56;;;;;;;29.08;18.15;;;;;;;;;;4996850;28;20029;-70
2023/08/05 12:32:21;;;;;;;25.30;14.70;;;;;;;;;;5015749;28;21905;-71
2023/08/05 12:34:47;;;;;;;19.63;11.45;;;;;;;;;;5004100;28;20486;-71
2023/08/05 12:37:12;;;;;;;21.52;7.53;;;;;;;;;;5013680;28;20168;-71
2023/08/05 12:39:38;;;;;;;20.02;7.28;;;;;;;;;;4982776;28;20117;-80
2023/08/05 12:42:08;;;;;;;18.02;6.45;;;;;;;;;;5001214;28;20036;-78
2023/08/05 12:44:34;;;;;;;15.23;5.82;;;;;;;;;;5001968;28;20256;-79
2023/08/05 12:47:03;;;;;;;21.67;5.68;;;;;;;;;;4963871;28;20052;-79
2023/08/05 12:49:28;;;;;;;20.80;6.43;;;;;;;;;;5005538;28;21925;-78
2023/08/05 12:52:10;;;;;;;32.15;8.95;;;;;;;;;;4942278;28;20031;-73
2023/08/05 12:54:38;;;;;;;;;;;;;;;;;;4906840;28;20139;-71
2023/08/05 12:57:08;;;;;;;27.85;14.27;;;;;;;;;;4930394;28;19917;-72
2023/08/05 12:59:36;;;;;;;26.48;15.90;;;;;;;;;;4981809;28;20104;-71
2023/08/05 13:02:22;;;;;;;;;;;;;;;;;;;;;
2023/08/05 13:04:49;;;;;;;22.08;13.38;;;;;;;;;;4954765;28;20049;-73
2023/08/05 13:07:16;;;;;;;23.50;13.90;;;;;;;;;;4989856;28;20036;-74
2023/08/05 13:09:47;;;;;;;18.70;10.98;;;;;;;;;;4957593;28;20040;-74
2023/08/05 13:12:15;;;;;;;25.75;13.85;;;;;;;;;;5012878;28;20122;-73
2023/08/05 13:14:42;;;;;;;21.88;13.80;;;;;;;;;;5015163;28;20033;-72
2023/08/05 13:17:10;;;;;;;20.65;11.38;;;;;;;;;;5013557;28;20827;-71
2023/08/05 13:19:36;;;;;;;22.75;11.90;;;;;;;;;;5017534;28;20029;-73
2023/08/05 13:22:02;;;;;;;14.32;8.75;;;;;;;;;;5015684;28;20041;-72
2023/08/05 13:24:32;;;;;;;25.30;12.40;;;;;;;;;;5004994;28;20179;-72
2023/08/05 13:26:57;;;;;;;27.15;13.45;;;;;;;;;;5015699;28;20068;-71
2023/08/05 13:29:22;;;;;;;26.77;13.30;;;;;;;;;;5010652;28;20057;-70
2023/08/05 13:31:48;;;;;;;21.88;10.27;;;;;;;;;;5011446;28;20040;-69
2023/08/05 13:34:13;;;;;;;19.30;12.13;;;;;;;;;;5015047;28;20808;-70
2023/08/05 13:36:39;;;;;;;22.15;14.43;;;;;;;;;;5014135;28;20180;-69
2023/08/05 13:39:06;;;;;;;22.73;12.48;;;;;;;;;;5014089;28;20033;-70
2023/08/05 13:41:32;;;;;;;25.77;13.77;;;;;;;;;;5011301;28;20105;-69
2023/08/05 13:43:57;;;;;;;22.00;14.00;;;;;;;;;;5016535;28;20540;-69
2023/08/05 13:46:22;;;;;;;21.67;13.13;;;;;;;;;;5014018;28;20164;-71
2023/08/05 13:48:48;;;;;;;34.78;16.10;;;;;;;;;;5014967;28;20045;-72
2023/08/05 13:51:13;;;;;;;26.40;14.43;;;;;;;;;;4998213;28;20060;-71
2023/08/05 13:53:39;;;;;;;15.65;9.00;;;;;;;;;;5013923;28;20124;-72
2023/08/05 13:56:04;;;;;;;13.27;7.68;;;;;;;;;;5012332;28;20048;-72
2023/08/05 13:58:30;;;;;;;14.55;6.90;;;;;;;;;;5013956;28;20060;-71
2023/08/05 14:00:59;;;;;;;14.30;7.80;;;;;;;;;;5013826;28;20552;-72
2023/08/05 14:03:27;;;;;;;12.75;6.80;;;;;;;;;;4993568;28;22002;-69
2023/08/05 14:05:56;;;;;;;11.13;6.32;;;;;;;;;;5013981;28;20124;-69
2023/08/05 14:08:22;;;;;;;8.70;4.82;;;;;;;;;;5012984;28;20797;-69
2023/08/05 14:10:51;;;;;;;10.40;5.45;;;;;;;;;;4997217;28;20057;-69
2023/08/05 14:13:16;;;;;;;9.15;5.20;;;;;;;;;;4996096;28;20992;-69
2023/08/05 14:15:41;;;;;;;7.15;4.40;;;;;;;;;;5016687;28;20041;-68
2023/08/05 14:18:07;;;;;;;7.55;3.42;;;;;;;;;;5017675;28;20041;-67
2023/08/05 14:20:32;;;;;;;7.22;4.03;;;;;;;;;;5017161;28;21808;-68
2023/08/05 14:22:57;;;;;;;5.85;3.63;;;;;;;;;;5018346;28;20864;-67
2023/08/05 14:25:25;;;;;;;9.77;4.53;;;;;;;;;;5017440;28;20637;-67
2023/08/05 14:27:50;;;;;;;7.18;3.55;;;;;;;;;;5001358;28;20057;-66